Time;durP1;ratioP1;P1;durP2;ratioP2;P2;SDS_P1;SDS_P2;PMS_P1;PMS_P2;Temp;Humidity;BMP_temperature;BMP_pressure;BME280_temperature;BME280_humidity;BME280_pressure;Samples;Min_cycle;Max_cycle;Signal;HPM_P1;HPM_P2
2021/06/30 00:02:00;;;;;;;0.10;0.10;;;;;;;17.49;93.57;101025.59;10473023;28;20485;-59
2021/06/30 00:07:01;;;;;;;0.10;0.10;;;;;;;17.52;93.74;101020.63;10492453;28;20423;-59
2021/06/30 00:12:02;;;;;;;0.10;0.10;;;;;;;17.58;93.52;101016.28;10488353;28;20024;-60
2021/06/30 00:17:03;;;;;;;0.10;0.10;;;;;;;17.58;93.41;101006.34;10458035;28;20214;-59
2021/06/30 00:22:04;;;;;;;0.00;0.00;;;;;;;17.57;93.46;101004.69;10451987;28;20013;-59
2021/06/30 00:27:05;;;;;;;0.08;0.08;;;;;;;17.59;93.44;100999.91;10452683;28;20020;-60
2021/06/30 00:32:06;;;;;;;0.10;0.10;;;;;;;17.59;93.59;101002.63;10465357;28;20040;-60
2021/06/30 00:37:06;;;;;;;0.10;0.10;;;;;;;17.58;93.61;100992.06;10489671;28;20029;-59
2021/06/30 00:42:07;;;;;;;0.10;0.10;;;;;;;17.59;93.63;100981.06;10479232;28;20016;-60
2021/06/30 00:47:07;;;;;;;0.10;0.10;;;;;;;17.60;93.62;100969.28;10492607;28;20483;-59
2021/06/30 00:52:08;;;;;;;0.10;0.10;;;;;;;17.64;93.79;100972.41;10492063;28;20112;-60
2021/06/30 00:57:09;;;;;;;0.10;0.10;;;;;;;17.68;93.79;100967.44;10492476;28;20020;-60
2021/06/30 01:02:10;;;;;;;0.10;0.10;;;;;;;17.69;93.88;100966.41;10481328;28;20115;-60
2021/06/30 01:07:10;;;;;;;0.10;0.10;;;;;;;17.71;93.91;100964.31;10470107;28;20477;-60
2021/06/30 01:12:11;;;;;;;0.10;0.10;;;;;;;17.71;93.70;100962.47;10462788;28;20012;-60
2021/06/30 01:17:11;;;;;;;0.10;0.10;;;;;;;17.73;93.67;100964.97;10466215;28;20020;-59
2021/06/30 01:22:11;;;;;;;0.10;0.10;;;;;;;17.73;93.59;100957.72;10490992;28;20107;-60
2021/06/30 01:27:13;;;;;;;0.10;0.10;;;;;;;17.77;93.77;100966.22;10491390;28;20460;-58
2021/06/30 01:32:14;;;;;;;0.10;0.10;;;;;;;17.82;93.98;100961.06;10483071;28;20047;-60
2021/06/30 01:37:15;;;;;;;0.10;0.10;;;;;;;17.85;93.92;100961.50;10491379;28;20035;-60
2021/06/30 01:42:15;;;;;;;0.10;0.10;;;;;;;17.87;93.75;100969.38;10477345;28;20036;-59
2021/06/30 01:47:15;;;;;;;0.10;0.10;;;;;;;17.86;93.79;100965.88;10450137;28;20021;-60
2021/06/30 01:52:16;;;;;;;0.13;0.13;;;;;;;17.92;93.75;100969.63;10451213;28;20023;-59
2021/06/30 01:57:16;;;;;;;0.05;0.05;;;;;;;17.94;93.60;100964.00;10460659;28;20094;-60
2021/06/30 02:02:17;;;;;;;0.10;0.10;;;;;;;17.95;94.06;100966.50;10467125;28;20020;-60
2021/06/30 02:07:18;;;;;;;0.10;0.10;;;;;;;17.94;93.82;100964.00;10463729;28;20029;-60
2021/06/30 02:12:18;;;;;;;0.10;0.10;;;;;;;17.93;93.61;100962.34;10472807;28;20021;-60
2021/06/30 02:17:19;;;;;;;0.10;0.10;;;;;;;17.93;93.85;100970.44;10459897;28;20686;-60
2021/06/30 02:22:19;;;;;;;0.10;0.10;;;;;;;17.95;93.59;100977.28;10447969;28;20294;-60
2021/06/30 02:27:19;;;;;;;0.00;0.00;;;;;;;18.00;92.65;100979.34;10486876;28;20292;-60
2021/06/30 02:32:19;;;;;;;0.10;0.10;;;;;;;17.97;93.25;100980.59;10485396;28;20028;-60
2021/06/30 02:37:20;;;;;;;0.10;0.10;;;;;;;17.94;93.64;100975.59;10450918;28;20032;-59
2021/06/30 02:42:20;;;;;;;0.10;0.10;;;;;;;17.89;93.91;100972.72;10475514;28;20032;-60
2021/06/30 02:47:20;;;;;;;0.10;0.10;;;;;;;17.88;93.91;100973.72;10483864;28;20021;-60
2021/06/30 02:52:21;;;;;;;0.07;0.07;;;;;;;17.86;94.03;100970.44;10447593;28;20550;-59
2021/06/30 02:57:21;;;;;;;0.10;0.10;;;;;;;17.81;93.70;100962.94;10448559;28;20061;-59
2021/06/30 03:02:21;;;;;;;0.10;0.10;;;;;;;17.76;93.17;100962.69;10468149;28;20063;-60
2021/06/30 03:07:22;;;;;;;0.10;0.10;;;;;;;17.73;93.30;100962.28;10455974;28;20028;-59
2021/06/30 03:12:22;;;;;;;0.10;0.10;;;;;;;17.70;93.13;100962.69;10477158;28;20097;-58
2021/06/30 03:17:22;;;;;;;0.10;0.10;;;;;;;17.66;92.41;100962.25;10455245;28;20025;-60
2021/06/30 03:22:23;;;;;;;0.10;0.10;;;;;;;17.67;93.37;100963.09;10454707;28;20021;-60
2021/06/30 03:27:24;;;;;;;0.10;0.10;;;;;;;17.70;93.37;100949.22;10454994;28;20027;-59
2021/06/30 03:32:24;;;;;;;0.10;0.10;;;;;;;17.70;93.14;100946.50;10474503;28;20028;-59
2021/06/30 03:37:24;;;;;;;0.10;0.10;;;;;;;17.77;93.27;100950.03;10496019;28;20025;-60
2021/06/30 03:42:28;;;;;;;0.10;0.10;;;;;;;17.78;93.57;100949.88;10493927;28;20017;-59
2021/06/30 03:47:28;;;;;;;0.10;0.10;;;;;;;17.80;93.40;100957.75;10435772;28;20029;-57
2021/06/30 03:52:28;;;;;;;0.10;0.10;;;;;;;17.80;93.09;100950.53;10453624;28;20029;-57
2021/06/30 03:57:30;;;;;;;0.10;0.10;;;;;;;17.84;93.02;100959.03;10478961;28;20024;-60
2021/06/30 04:02:30;;;;;;;0.10;0.10;;;;;;;17.94;92.80;100955.91;10439294;28;20391;-60
2021/06/30 04:07:31;;;;;;;0.10;0.10;;;;;;;18.13;92.08;100954.31;10488400;28;20020;-59
2021/06/30 04:12:31;;;;;;;0.00;0.00;;;;;;;18.23;91.39;100962.81;10452021;28;20020;-60
2021/06/30 04:17:31;;;;;;;0.03;0.03;;;;;;;18.48;90.85;100973.81;10490685;28;20263;-60
2021/06/30 04:22:32;;;;;;;0.10;0.10;;;;;;;18.86;89.49;100967.78;10468517;28;20090;-60
2021/06/30 04:27:33;;;;;;;0.10;0.10;;;;;;;19.02;88.56;100974.59;10486753;28;20020;-60
2021/06/30 04:32:33;;;;;;;0.10;0.10;;;;;;;18.90;88.16;100969.84;10485234;28;20622;-60
2021/06/30 04:37:34;;;;;;;0.10;0.10;;;;;;;18.82;88.40;100967.41;10486291;28;20024;-60
2021/06/30 04:42:35;;;;;;;0.10;0.10;;;;;;;18.73;88.17;100960.50;10493355;28;20060;-60
2021/06/30 04:47:35;;;;;;;0.10;0.10;;;;;;;18.62;88.72;100948.50;10493356;28;20020;-57
2021/06/30 04:52:35;;;;;;;0.00;0.00;;;;;;;18.60;88.72;100950.56;10492862;28;20043;-60
2021/06/30 04:57:36;;;;;;;0.10;0.10;;;;;;;18.45;88.58;100950.78;10492771;28;20066;-60
2021/06/30 05:02:37;;;;;;;0.10;0.10;;;;;;;18.27;88.62;100956.81;10472062;28;20033;-59
2021/06/30 05:07:37;;;;;;;0.07;0.07;;;;;;;18.17;89.60;100963.63;10451037;28;20549;-60
2021/06/30 05:12:37;;;;;;;0.10;0.10;;;;;;;18.16;89.67;100961.97;10478073;28;20021;-58
2021/06/30 05:17:38;;;;;;;0.10;0.10;;;;;;;18.06;89.44;100965.91;10483144;28;20149;-60
2021/06/30 05:22:38;;;;;;;0.00;0.00;;;;;;;17.96;90.17;100981.63;10449844;28;20111;-59
2021/06/30 05:27:39;;;;;;;0.10;0.10;;;;;;;17.94;89.87;100972.09;10449806;28;20451;-58
2021/06/30 05:32:39;;;;;;;0.10;0.10;;;;;;;17.96;90.45;100987.03;10468428;28;20020;-60
2021/06/30 05:37:40;;;;;;;0.10;0.10;;;;;;;17.98;90.71;100968.78;10490740;28;20036;-60
2021/06/30 05:42:42;;;;;;;0.10;0.10;;;;;;;18.10;91.00;100966.31;10477097;23;20048;-68
2021/06/30 05:47:44;;;;;;;0.00;0.00;;;;;;;18.22;90.24;100974.63;10452166;28;20029;-67
2021/06/30 05:52:44;;;;;;;0.10;0.10;;;;;;;18.32;89.59;100967.81;10451323;28;20045;-65
2021/06/30 05:57:45;;;;;;;0.10;0.10;;;;;;;18.35;88.98;100969.22;10451413;28;20039;-66
2021/06/30 06:02:46;;;;;;;0.10;0.10;;;;;;;18.43;89.22;100962.81;10416746;28;20033;-66
2021/06/30 06:07:46;;;;;;;0.10;0.10;;;;;;;18.55;88.45;100955.75;10450860;28;20757;-68
2021/06/30 06:12:46;;;;;;;0.10;0.10;;;;;;;18.68;87.70;100957.63;10451303;28;20032;-68
2021/06/30 06:17:47;;;;;;;0.10;0.10;;;;;;;18.68;87.39;100968.41;10451240;28;20275;-68
2021/06/30 06:22:47;;;;;;;0.10;0.10;;;;;;;18.63;87.66;100968.22;10450353;28;20025;-67
2021/06/30 06:27:48;;;;;;;0.10;0.10;;;;;;;18.65;87.93;100974.22;10450591;28;20129;-68
2021/06/30 06:32:48;;;;;;;0.10;0.10;;;;;;;18.75;87.26;100974.66;10450320;28;20033;-67
2021/06/30 06:37:49;;;;;;;0.00;0.00;;;;;;;18.78;86.58;100971.53;10452693;28;20555;-68
2021/06/30 06:42:51;;;;;;;0.10;0.10;;;;;;;18.69;86.88;100975.47;10458401;28;20048;-67
2021/06/30 06:47:52;;;;;;;0.10;0.10;;;;;;;18.59;87.18;100975.03;10459537;28;20099;-66
2021/06/30 06:52:52;;;;;;;0.10;0.10;;;;;;;18.58;87.15;100981.47;10458200;28;20017;-66
2021/06/30 06:57:53;;;;;;;0.10;0.10;;;;;;;18.59;87.32;100985.81;10458119;28;20082;-65
2021/06/30 07:02:53;;;;;;;0.10;0.10;;;;;;;18.62;87.58;100980.03;10457708;28;20298;-67
2021/06/30 07:07:53;;;;;;;0.10;0.10;;;;;;;18.76;87.12;100974.47;10458176;28;20036;-67
2021/06/30 07:12:54;;;;;;;0.00;0.00;;;;;;;19.00;85.69;100977.53;10457476;28;20407;-67
2021/06/30 07:17:54;;;;;;;0.10;0.10;;;;;;;19.29;85.41;100973.50;10457417;28;20025;-68
2021/06/30 07:22:55;;;;;;;0.10;0.10;;;;;;;19.53;84.91;100977.34;10456932;28;20029;-66
2021/06/30 07:27:55;;;;;;;0.10;0.10;;;;;;;19.56;84.13;100992.31;10439107;28;20029;-68
2021/06/30 07:32:56;;;;;;;0.10;0.10;;;;;;;19.52;83.50;100991.06;10456827;28;20055;-68
2021/06/30 07:37:56;;;;;;;0.10;0.10;;;;;;;19.59;83.99;100990.00;10456781;28;20104;-67
2021/06/30 07:42:56;;;;;;;0.10;0.10;;;;;;;19.93;83.27;100984.47;10456172;28;20025;-68
2021/06/30 07:47:57;;;;;;;0.10;0.10;;;;;;;20.23;82.50;100981.97;10455738;28;20040;-68
2021/06/30 07:52:58;;;;;;;0.00;0.00;;;;;;;20.63;81.23;100977.09;10455802;28;20028;-66
2021/06/30 07:57:59;;;;;;;0.10;0.10;;;;;;;20.82;81.02;100986.06;10455849;28;20096;-64
2021/06/30 08:02:59;;;;;;;0.10;0.10;;;;;;;20.82;79.74;100988.78;10455171;28;20115;-66
2021/06/30 08:07:59;;;;;;;0.10;0.10;;;;;;;20.78;79.84;100987.59;10455366;28;20203;-66
2021/06/30 08:13:00;;;;;;;0.10;0.10;;;;;;;20.69;79.37;100983.50;10455100;28;20021;-66
2021/06/30 08:18:00;;;;;;;0.10;0.10;;;;;;;20.66;80.12;100982.06;10454892;28;20761;-66
2021/06/30 08:23:01;;;;;;;0.10;0.10;;;;;;;20.54;80.44;100989.25;10452058;28;20482;-66
2021/06/30 08:28:01;;;;;;;0.10;0.10;;;;;;;20.44;81.63;100997.81;10452223;28;20268;-66
2021/06/30 08:33:02;;;;;;;0.00;0.00;;;;;;;20.43;80.33;100998.06;10454261;28;20020;-65
2021/06/30 08:38:02;;;;;;;0.00;0.00;;;;;;;20.62;80.64;101001.66;10454173;28;20037;-66
2021/06/30 08:43:05;;;;;;;0.08;0.08;;;;;;;20.65;79.51;101004.75;10436363;28;20041;-66
2021/06/30 08:48:08;;;;;;;0.08;0.08;;;;;;;20.65;79.14;101012.88;10454580;28;20013;-64
2021/06/30 08:53:15;;;;;;;0.10;0.10;;;;;;;20.78;79.00;101006.53;10453630;28;20091;-65
2021/06/30 08:58:15;;;;;;;0.10;0.10;;;;;;;20.90;78.72;100999.31;10453404;28;20059;-66
2021/06/30 09:03:17;;;;;;;0.10;0.10;;;;;;;20.95;77.95;101007.63;10452154;28;20055;-66
2021/06/30 09:08:17;;;;;;;0.00;0.00;;;;;;;20.88;77.63;101000.59;10435117;28;20021;-65
2021/06/30 09:13:24;;;;;;;0.00;0.00;;;;;;;20.67;78.27;100999.13;10453318;28;20021;-65
2021/06/30 09:18:34;;;;;;;0.10;0.10;;;;;;;20.46;79.62;101009.25;10452439;28;20053;-66
2021/06/30 09:23:34;;;;;;;0.10;0.10;;;;;;;20.27;79.88;101019.16;10452162;28;20028;-66
2021/06/30 09:28:42;;;;;;;0.10;0.10;;;;;;;20.26;80.12;101017.50;10452858;28;20025;-65
2021/06/30 09:33:54;;;;;;;0.10;0.10;;;;;;;20.46;79.51;101014.66;10452491;28;20043;-63
2021/06/30 09:38:54;;;;;;;0.10;0.10;;;;;;;20.71;79.35;101006.59;10451910;28;20033;-66
2021/06/30 09:44:06;;;;;;;0.10;0.10;;;;;;;20.90;77.58;101012.88;10451478;28;20083;-65
2021/06/30 09:49:18;;;;;;;0.10;0.10;;;;;;;21.13;77.21;101014.94;10451439;28;20082;-68
2021/06/30 09:54:18;;;;;;;0.00;0.00;;;;;;;21.51;74.57;100997.66;10451355;28;20100;-66
2021/06/30 09:59:21;;;;;;;0.10;0.10;;;;;;;22.15;73.86;101006.16;10451189;28;20029;-68
2021/06/30 10:04:31;;;;;;;0.00;0.00;;;;;;;23.03;71.48;101010.81;10451029;28;20033;-68
2021/06/30 10:09:32;;;;;;;0.10;0.10;;;;;;;23.66;68.45;101008.34;10433089;28;20452;-68
2021/06/30 10:14:33;;;;;;;0.10;0.10;;;;;;;23.80;66.30;101014.34;10450762;28;20075;-68
2021/06/30 10:19:38;;;;;;;0.10;0.10;;;;;;;23.88;65.09;101009.34;10450487;28;20027;-67
2021/06/30 10:24:39;;;;;;;0.10;0.10;;;;;;;24.04;66.09;101012.34;10450479;28;20057;-67
2021/06/30 10:29:42;;;;;;;0.10;0.10;;;;;;;24.12;65.54;101010.06;10450419;28;20052;-68
2021/06/30 10:34:53;;;;;;;0.10;0.10;;;;;;;23.84;66.24;101010.06;10449820;28;20391;-68
2021/06/30 10:39:56;;;;;;;0.10;0.10;;;;;;;23.59;64.97;101005.75;10450306;28;20072;-66
2021/06/30 10:44:59;;;;;;;0.10;0.10;;;;;;;23.55;66.34;101007.28;10450239;28;20112;-67
2021/06/30 10:50:37;;;;;;;0.00;0.00;;;;;;;23.50;66.93;101008.03;10432764;28;20021;-68
2021/06/30 10:55:39;;;;;;;0.00;0.00;;;;;;;23.42;67.73;100997.53;10450291;28;20054;-68
2021/06/30 11:00:51;;;;;;;0.00;0.00;;;;;;;23.39;67.81;100994.47;10449967;28;20143;-68
2021/06/30 11:05:54;;;;;;;0.00;0.00;;;;;;;23.34;67.69;100988.91;10431960;28;20661;-67
2021/06/30 11:10:54;;;;;;;0.00;0.00;;;;;;;23.41;67.57;100987.72;10449864;28;20028;-67
2021/06/30 11:15:54;;;;;;;0.10;0.10;;;;;;;23.40;67.01;100974.38;10431942;28;20089;-67
2021/06/30 11:21:00;;;;;;;0.10;0.10;;;;;;;23.54;66.28;100969.50;10449692;28;20372;-68
2021/06/30 11:26:37;;;;;;;0.00;0.00;;;;;;;23.70;67.16;100968.72;10455063;28;20029;-67
2021/06/30 11:31:38;;;;;;;0.10;0.10;;;;;;;24.00;65.88;100970.34;10457229;28;20074;-68
2021/06/30 11:36:40;;;;;;;0.10;0.10;;;;;;;24.57;66.57;100965.63;10457369;28;20394;-65
2021/06/30 11:41:46;;;;;;;0.10;0.10;;;;;;;24.69;64.09;100965.53;10435391;22;20499;-61
2021/06/30 11:46:50;;;;;;;0.10;0.10;;;;;;;24.84;62.93;100967.66;10430052;28;20038;-60
2021/06/30 11:52:02;;;;;;;0.00;0.00;;;;;;;24.69;64.55;100978.34;10410576;28;20052;-60
2021/06/30 11:57:05;;;;;;;0.10;0.10;;;;;;;24.57;64.95;100975.72;10428674;28;20163;-62
2021/06/30 12:02:06;;;;;;;0.10;0.10;;;;;;;24.52;64.92;100987.38;10449432;28;20017;-58
2021/06/30 12:07:06;;;;;;;0.00;0.00;;;;;;;24.21;63.71;100999.59;10413716;28;20017;-59
2021/06/30 12:12:09;;;;;;;0.10;0.10;;;;;;;23.93;63.75;100997.72;10389588;28;20024;-58
2021/06/30 12:17:14;;;;;;;0.10;0.10;;;;;;;24.09;64.62;100999.66;10440812;28;20067;-61
2021/06/30 12:22:18;;;;;;;0.00;0.00;;;;;;;24.27;62.00;100990.44;10444863;28;20066;-59
2021/06/30 12:27:18;;;;;;;0.10;0.10;;;;;;;24.50;63.56;101005.00;10431126;28;20021;-60
2021/06/30 12:32:19;;;;;;;0.00;0.00;;;;;;;24.68;64.01;101002.03;10444694;28;20333;-58
2021/06/30 12:37:22;;;;;;;0.10;0.10;;;;;;;24.67;60.75;101003.13;10412037;28;20563;-58
2021/06/30 12:42:41;;;;;;;0.10;0.10;;;;;;;24.75;62.50;101008.13;10419271;28;20041;-58
2021/06/30 12:47:54;;;;;;;0.10;0.10;;;;;;;24.73;63.29;101004.03;10410954;28;20160;-60
2021/06/30 12:53:03;;;;;;;0.10;0.10;;;;;;;24.15;62.15;101009.56;10407105;28;20030;-58
2021/06/30 12:58:04;;;;;;;0.10;0.10;;;;;;;24.03;64.20;101016.13;10407257;28;20033;-59
2021/06/30 13:03:41;;;;;;;0.10;0.10;;;;;;;24.42;62.73;101010.84;10415910;28;20377;-58
2021/06/30 13:08:44;;;;;;;0.10;0.10;;;;;;;24.24;62.57;101004.56;10445923;28;20035;-58
2021/06/30 13:13:54;;;;;;;0.10;0.10;;;;;;;24.27;62.96;101006.78;10445818;28;20031;-58
2021/06/30 13:18:57;;;;;;;0.00;0.00;;;;;;;24.40;61.06;100994.72;10423717;28;20116;-59
2021/06/30 13:24:01;;;;;;;0.00;0.00;;;;;;;24.69;61.06;100992.78;10428705;28;20036;-59
2021/06/30 13:34:25;;;;;;;0.10;0.10;;;;;;;24.55;62.50;100978.69;10446510;28;20033;-56
2021/06/30 13:39:27;;;;;;;0.00;0.00;;;;;;;24.44;61.62;100967.91;10444643;28;20024;-58
2021/06/30 13:44:29;;;;;;;0.08;0.08;;;;;;;24.32;62.55;100982.38;10443367;28;20387;-59
2021/06/30 13:49:30;;;;;;;0.10;0.10;;;;;;;24.18;61.93;100975.59;10424101;28;20092;-58
2021/06/30 13:54:30;;;;;;;0.10;0.10;;;;;;;24.08;62.89;100978.13;10445276;28;20083;-58
2021/06/30 13:59:30;;;;;;;0.10;0.10;;;;;;;24.00;63.24;100986.69;10415560;28;20091;-59
2021/06/30 14:04:30;;;;;;;0.10;0.10;;;;;;;23.94;62.31;100992.06;10420896;28;20418;-59
2021/06/30 14:09:31;;;;;;;0.10;0.10;;;;;;;23.76;62.55;100994.13;10440620;28;20025;-59
2021/06/30 14:14:31;;;;;;;0.10;0.10;;;;;;;23.25;63.22;100999.34;10439150;28;20016;-60
2021/06/30 14:19:31;;;;;;;0.05;0.05;;;;;;;22.95;64.93;101005.75;10426738;28;20115;-58
2021/06/30 14:24:32;;;;;;;0.10;0.10;;;;;;;22.80;65.41;101008.06;10442381;28;20033;-61
2021/06/30 14:29:32;;;;;;;0.10;0.10;;;;;;;22.42;64.24;101011.22;10445733;28;20263;-58
2021/06/30 14:34:32;;;;;;;0.05;0.05;;;;;;;22.12;66.24;101023.72;10444969;28;20017;-58
2021/06/30 14:39:34;;;;;;;0.00;0.00;;;;;;;21.77;68.02;101023.59;10442066;28;20021;-59
2021/06/30 14:44:35;;;;;;;0.00;0.00;;;;;;;21.65;67.80;101014.59;10439930;28;20024;-59
2021/06/30 14:49:35;;;;;;;0.10;0.10;;;;;;;21.43;69.16;101030.47;10442380;28;20020;-60
2021/06/30 14:54:36;;;;;;;0.00;0.00;;;;;;;21.30;69.79;101014.34;10444036;28;20013;-60
2021/06/30 14:59:37;;;;;;;0.00;0.00;;;;;;;21.25;69.49;101017.72;10420031;28;20071;-59
2021/06/30 15:04:38;;;;;;;0.10;0.10;;;;;;;21.14;70.19;101016.56;10431447;28;20337;-59
2021/06/30 15:09:39;;;;;;;0.10;0.10;;;;;;;21.01;70.17;101019.44;10449883;28;20037;-58
2021/06/30 15:14:39;;;;;;;0.00;0.00;;;;;;;20.80;70.93;101021.50;10451683;28;20082;-59
2021/06/30 15:19:39;;;;;;;0.10;0.10;;;;;;;20.59;70.97;101013.75;10445643;28;20442;-59
2021/06/30 15:24:40;;;;;;;0.10;0.10;;;;;;;20.43;72.17;101006.19;10451410;28;20179;-59
2021/06/30 15:29:42;;;;;;;0.00;0.00;;;;;;;20.26;72.72;101020.22;10451735;28;20043;-59
2021/06/30 15:34:45;;;;;;;0.10;0.10;;;;;;;20.12;72.46;101024.88;10449568;28;20765;-59
2021/06/30 15:39:45;;;;;;;0.10;0.10;;;;;;;19.97;72.62;101020.81;10450443;28;20020;-60
2021/06/30 15:44:46;;;;;;;0.10;0.10;;;;;;;19.78;73.25;101022.56;10452794;28;20025;-59
2021/06/30 15:49:46;;;;;;;0.10;0.10;;;;;;;19.64;73.65;101038.00;10453220;28;20032;-59
2021/06/30 15:54:46;;;;;;;0.10;0.10;;;;;;;19.61;74.26;101038.44;10452412;28;20112;-59
2021/06/30 15:59:47;;;;;;;0.10;0.10;;;;;;;19.54;74.09;101032.19;10452418;28;20029;-58
2021/06/30 16:04:47;;;;;;;0.10;0.10;;;;;;;19.41;74.99;101033.91;10451877;28;20406;-60
2021/06/30 16:09:47;;;;;;;0.10;0.10;;;;;;;19.27;75.75;101029.59;10450921;28;20021;-59
2021/06/30 16:14:50;;;;;;;0.10;0.10;;;;;;;19.11;75.55;101041.69;10451229;28;20032;-58
2021/06/30 16:19:50;;;;;;;0.00;0.00;;;;;;;18.94;75.97;101033.19;10451532;28;20039;-59
2021/06/30 16:24:51;;;;;;;0.10;0.10;;;;;;;18.79;76.56;101043.34;10451104;28;20037;-59
2021/06/30 16:29:51;;;;;;;0.10;0.10;;;;;;;18.63;77.86;101033.78;10450792;28;20037;-57
2021/06/30 16:34:52;;;;;;;0.10;0.10;;;;;;;18.46;79.97;101021.72;10451022;28;20025;-60
2021/06/30 16:39:52;;;;;;;0.10;0.10;;;;;;;18.23;81.21;101035.59;10450543;28;20423;-62
2021/06/30 16:44:53;;;;;;;0.10;0.10;;;;;;;18.06;82.58;101035.13;10451339;28;20029;-64
2021/06/30 16:49:53;;;;;;;0.10;0.10;;;;;;;17.92;83.50;101039.69;10451373;28;20484;-65
2021/06/30 16:54:54;;;;;;;0.10;0.10;;;;;;;17.86;84.09;101035.09;10450671;28;20067;-65
2021/06/30 16:59:55;;;;;;;0.10;0.10;;;;;;;17.76;84.66;101026.53;10450510;28;20783;-65
2021/06/30 17:04:55;;;;;;;0.10;0.10;;;;;;;17.65;85.39;101034.13;10449589;28;20078;-65
2021/06/30 17:09:56;;;;;;;0.10;0.10;;;;;;;17.59;86.56;101029.56;10449240;28;20031;-65
2021/06/30 17:14:56;;;;;;;0.10;0.10;;;;;;;17.53;86.24;101034.91;10449708;28;20024;-65
2021/06/30 17:19:56;;;;;;;0.10;0.10;;;;;;;17.49;86.09;101044.44;10449277;28;20036;-66
2021/06/30 17:24:59;;;;;;;0.10;0.10;;;;;;;17.38;87.05;101043.94;10448763;28;20024;-66
2021/06/30 17:29:59;;;;;;;0.10;0.10;;;;;;;17.31;87.20;101048.47;10448929;28;20025;-66
2021/06/30 17:35:00;;;;;;;0.10;0.10;;;;;;;17.22;87.05;101043.44;10449039;28;20096;-66
2021/06/30 17:45:10;;;;;;;0.10;0.10;;;;;;;17.15;87.70;101036.16;10409907;28;20080;-67
2021/06/30 17:50:11;;;;;;;0.10;0.10;;;;;;;17.16;87.46;101024.38;10411544;28;20471;-66
2021/06/30 17:55:12;;;;;;;0.10;0.10;;;;;;;17.14;87.09;101028.28;10411296;28;20028;-66
2021/06/30 18:00:14;;;;;;;0.10;0.10;;;;;;;17.06;87.85;101031.13;10410546;28;20499;-66
2021/06/30 18:05:16;;;;;;;0.10;0.10;;;;;;;16.97;87.48;101046.59;10410433;28;20400;-66
2021/06/30 18:10:18;;;;;;;0.10;0.10;;;;;;;16.90;87.76;101048.38;10410983;28;20025;-66
2021/06/30 18:15:19;;;;;;;0.08;0.08;;;;;;;16.81;87.63;101052.25;10410799;28;20309;-66
2021/06/30 18:20:20;;;;;;;0.10;0.10;;;;;;;16.72;87.73;101056.91;10410023;28;20496;-66
2021/06/30 18:25:20;;;;;;;0.10;0.10;;;;;;;16.64;88.01;101057.03;10409881;28;20033;-66
2021/06/30 18:30:22;;;;;;;0.10;0.10;;;;;;;16.58;88.95;101064.03;10409798;28;20029;-66
2021/06/30 18:35:22;;;;;;;0.10;0.10;;;;;;;16.51;89.14;101055.06;10416804;28;20068;-66
2021/06/30 18:40:23;;;;;;;0.10;0.10;;;;;;;16.48;89.44;101061.66;10417771;28;20033;-66
2021/06/30 18:45:24;;;;;;;0.10;0.10;;;;;;;16.41;89.30;101059.94;10447442;28;20059;-66
2021/06/30 18:50:24;;;;;;;0.22;0.22;;;;;;;16.41;89.88;101059.94;10458374;28;20033;-65
2021/06/30 18:55:24;;;;;;;0.10;0.10;;;;;;;16.37;89.55;101066.72;10458909;28;20463;-65
2021/06/30 19:00:25;;;;;;;0.10;0.10;;;;;;;16.31;89.54;101073.69;10458583;28;20047;-65
2021/06/30 19:05:25;;;;;;;0.10;0.10;;;;;;;16.27;89.70;101062.50;10458139;28;20033;-65
2021/06/30 19:10:27;;;;;;;0.10;0.10;;;;;;;16.22;89.35;101066.75;10458553;28;20078;-65
2021/06/30 19:15:27;;;;;;;0.10;0.10;;;;;;;16.14;89.60;101067.69;10459723;28;20025;-65
2021/06/30 19:20:29;;;;;;;0.10;0.10;;;;;;;16.05;89.44;101080.41;10458819;28;20048;-65
2021/06/30 19:25:30;;;;;;;0.10;0.10;;;;;;;16.00;90.04;101079.34;10457374;28;20025;-66
2021/06/30 19:30:31;;;;;;;0.10;0.10;;;;;;;15.93;90.09;101081.09;10457072;28;20086;-66
2021/06/30 19:35:31;;;;;;;0.10;0.10;;;;;;;15.87;90.76;101090.75;10456871;28;20075;-67
2021/06/30 19:40:32;;;;;;;0.10;0.10;;;;;;;15.81;90.70;101105.75;10436465;28;20032;-67
2021/06/30 19:45:33;;;;;;;0.10;0.10;;;;;;;15.75;90.94;101117.25;10414059;28;20492;-68
2021/06/30 19:50:34;;;;;;;0.00;0.00;;;;;;;15.70;91.33;101125.03;10414976;28;20049;-67
2021/06/30 19:55:34;;;;;;;0.10;0.10;;;;;;;15.66;91.37;101112.13;10414943;28;20404;-67
2021/06/30 20:00:36;;;;;;;0.10;0.10;;;;;;;15.59;91.36;101112.03;10414160;28;20373;-67
2021/06/30 20:05:36;;;;;;;0.10;0.10;;;;;;;15.54;91.58;101109.09;10397382;28;20367;-67
2021/06/30 20:10:37;;;;;;;0.10;0.10;;;;;;;15.53;92.10;101113.63;10396844;28;20112;-67
2021/06/30 20:15:38;;;;;;;0.10;0.10;;;;;;;15.53;92.20;101107.41;10390489;28;20021;-66
2021/06/30 20:20:38;;;;;;;0.10;0.10;;;;;;;15.52;92.17;101113.78;10413262;28;20083;-66
2021/06/30 20:25:38;;;;;;;0.10;0.10;;;;;;;15.49;91.87;101111.47;10373636;28;20026;-67
2021/06/30 20:30:39;;;;;;;0.10;0.10;;;;;;;15.45;91.98;101111.03;10396470;28;20279;-66
2021/06/30 20:35:39;;;;;;;0.13;0.13;;;;;;;15.42;92.11;101114.06;10392022;28;20047;-66
2021/06/30 20:40:39;;;;;;;0.10;0.10;;;;;;;15.41;92.18;101104.34;10379088;28;20484;-66
2021/06/30 20:45:40;;;;;;;0.10;0.10;;;;;;;15.40;92.93;101092.78;10402501;28;20105;-66
2021/06/30 20:50:41;;;;;;;0.10;0.10;;;;;;;15.39;92.82;101096.47;10403488;28;20687;-66
2021/06/30 20:55:41;;;;;;;0.10;0.10;;;;;;;15.40;93.00;101100.81;10387208;28;20487;-65
2021/06/30 21:00:41;;;;;;;0.10;0.10;;;;;;;15.42;92.62;101091.75;10380128;28;20029;-66
2021/06/30 21:05:42;;;;;;;0.10;0.10;;;;;;;15.39;92.50;101092.97;10391515;28;20381;-66
2021/06/30 21:10:43;;;;;;;0.10;0.10;;;;;;;15.38;92.66;101102.84;10404580;28;20029;-65
2021/06/30 21:15:43;;;;;;;0.10;0.10;;;;;;;15.38;92.86;101100.16;10389592;28;20032;-65
2021/06/30 21:20:43;;;;;;;0.10;0.10;;;;;;;15.35;92.49;101100.53;10380617;28;20049;-65
2021/06/30 21:25:44;;;;;;;0.10;0.10;;;;;;;15.34;92.65;101098.06;10406961;28;20387;-65
2021/06/30 21:30:44;;;;;;;0.10;0.10;;;;;;;15.34;92.97;101104.25;10402851;28;20029;-65
2021/06/30 21:35:44;;;;;;;0.10;0.10;;;;;;;15.36;93.21;101107.59;10411222;28;20105;-65
2021/06/30 21:40:44;;;;;;;0.10;0.10;;;;;;;15.34;93.04;101114.16;10379767;28;20029;-65
2021/06/30 21:45:45;;;;;;;0.17;0.17;;;;;;;15.29;92.97;101117.38;10369894;28;20389;-65
2021/06/30 21:50:45;;;;;;;0.10;0.10;;;;;;;15.30;92.86;101118.19;10369606;28;20545;-65
2021/06/30 21:55:46;;;;;;;0.10;0.10;;;;;;;15.31;93.30;101109.97;10369660;28;20017;-65
2021/06/30 22:00:46;;;;;;;0.10;0.10;;;;;;;15.32;93.06;101105.44;10393659;28;20022;-65
2021/06/30 22:05:47;;;;;;;0.10;0.10;;;;;;;15.31;92.93;101106.47;10379946;28;20022;-65
2021/06/30 22:10:47;;;;;;;0.10;0.10;;;;;;;15.30;93.38;101102.97;10377976;28;20108;-65
2021/06/30 22:15:48;;;;;;;0.10;0.10;;;;;;;15.32;93.61;101108.13;10384773;28;20045;-65
2021/06/30 22:20:48;;;;;;;0.10;0.10;;;;;;;15.30;93.42;101108.31;10383570;28;20424;-65
2021/06/30 22:25:50;;;;;;;0.10;0.10;;;;;;;15.28;93.68;101104.97;10379617;28;20058;-65
2021/06/30 22:30:51;;;;;;;0.10;0.10;;;;;;;15.30;93.30;101099.41;10389384;28;20053;-64
2021/06/30 22:35:51;;;;;;;0.10;0.10;;;;;;;15.30;93.34;101108.31;10368813;28;20488;-65
2021/06/30 22:40:52;;;;;;;0.10;0.10;;;;;;;15.30;93.29;101105.66;10368504;28;20109;-64
2021/06/30 22:45:55;;;;;;;0.10;0.10;;;;;;;15.30;93.26;101107.47;10380979;28;20029;-64
2021/06/30 22:50:56;;;;;;;0.10;0.10;;;;;;;15.28;93.75;101093.41;10388521;28;20049;-64
2021/06/30 22:55:56;;;;;;;0.10;0.10;;;;;;;15.26;93.45;101088.22;10393255;28;20033;-64
2021/06/30 23:00:59;;;;;;;0.10;0.10;;;;;;;15.25;93.37;101083.88;10382056;28;20567;-64
2021/06/30 23:05:59;;;;;;;0.10;0.10;;;;;;;15.26;93.81;101087.41;10368177;28;20022;-64
2021/06/30 23:11:00;;;;;;;0.10;0.10;;;;;;;15.25;93.65;101091.09;10368008;28;20034;-64
2021/06/30 23:16:01;;;;;;;0.10;0.10;;;;;;;15.21;93.67;101084.41;10368426;28;20026;-64